< Typhoon 199309 1993 Season Typhoon 199311 >
Typhoon 199310 (KEONI)
General InformationTrack Information on Google MapsDetailed Wind InformationList of All Images || Disaster Info.ResourceGoogle EarthGE AnimationAtom FeedGeoJSON
Detalied Best Track (Time Zone = UTC)
Year Month Day Hour Lat. Long. Pressure (hPa) Wind (kt) Class Image Chart
1993 8 19 12 20.1 180.9 980 60 7 Image Chart
1993 8 19 18 20.3 180.0 975 60 4 Image Chart
1993 8 20 00 20.7 179.2 970 65 5 Image Chart
1993 8 20 06 21.3 178.3 960 75 5 Image Chart
1993 8 20 12 21.9 177.3 955 75 5 Image Chart
1993 8 20 18 22.6 176.0 950 80 5 Image Chart
1993 8 21 00 23.1 174.9 950 80 5 Image Chart
1993 8 21 06 23.7 173.9 945 85 5 Image Chart
1993 8 21 12 24.5 172.7 940 90 5 Image Chart
1993 8 21 18 25.3 171.8 940 90 5 Image Chart
1993 8 22 00 26.1 171.2 940 90 5 Image Chart
1993 8 22 06 26.8 170.6 945 85 5 Image Chart
1993 8 22 12 27.3 170.1 950 80 5 Image Chart
1993 8 22 18 27.8 169.4 960 75 5 Image Chart
1993 8 23 00 28.2 168.6 970 70 5 Image Chart
1993 8 23 06 28.6 167.5 975 65 5 Image Chart
1993 8 23 12 28.8 166.2 975 60 4 Image Chart
1993 8 23 18 29.0 164.8 980 55 4 Image Chart
1993 8 24 00 29.4 163.6 980 55 4 Image Chart
1993 8 24 06 30.1 162.5 975 60 4 Image Chart
1993 8 24 12 30.9 161.9 970 65 5 Image Chart
1993 8 24 18 31.6 161.2 965 70 5 Image Chart
1993 8 25 00 32.1 160.5 960 70 5 Image Chart
1993 8 25 06 32.3 159.9 965 70 5 Image Chart
1993 8 25 12 32.4 159.6 965 70 5 Image Chart
1993 8 25 18 32.5 159.4 970 65 5 Image Chart
1993 8 26 00 32.7 159.2 975 60 4 Image Chart
1993 8 26 06 33.1 158.9 980 55 4 Image Chart
1993 8 26 12 33.8 158.5 985 50 4 Image Chart
1993 8 26 18 34.6 158.4 990 45 3 Image Chart
1993 8 27 00 35.5 158.5 992 45 3 Image Chart
1993 8 27 06 36.0 158.6 994 40 3 Image Chart
1993 8 27 12 36.6 158.8 994 40 3 Image Chart
1993 8 27 18 37.1 159.2 996 40 3 Image Chart
1993 8 28 00 37.3 160.1 998 40 3 Image Chart
1993 8 28 06 37.0 161.5 1002 0 2 Image Chart
1993 8 28 12 36.5 162.5 1002 0 2 Image Chart
1993 8 28 18 36.0 163.5 1004 0 2 Image Chart
1993 8 29 00 35.0 165.0 1006 0 2 Image Chart
1993 8 29 06 34.5 166.0 1008 0 2 Image Chart
1993 8 29 12 34.0 166.5 1010 0 2 Image Chart
1993 8 29 18 33.0 167.0 1012 0 2 Image Chart
1993 8 30 00 31.5 167.0 1012 0 2 Image Chart
1993 8 30 06 30.5 167.0 1012 0 2 Image Chart
1993 8 30 12 29.5 167.0 1010 0 2 Image Chart
1993 8 30 18 28.5 166.5 1010 0 2 Image Chart
1993 8 31 00 28.0 165.5 1008 0 2 Image Chart
1993 8 31 06 28.0 164.5 1008 0 2 Image Chart
1993 8 31 12 28.0 163.5 1008 0 2 Image Chart
1993 8 31 18 28.0 163.0 1008 0 2 Image Chart
1993 9 1 00 28.0 162.5 1008 0 2 Image Chart
1993 9 1 06 28.0 162.0 1008 0 2 Image Chart
1993 9 1 12 29.0 162.0 1008 0 2 Image Chart
1993 9 1 18 29.0 162.0 1008 0 2 Image Chart
1993 9 2 00 28.5 162.0 1008 0 2 Image Chart
1993 9 2 06 28.5 162.5 1010 0 2 Image Chart
1993 9 2 12 29.0 162.5 1012 0 2 Image Chart
1993 9 2 18 29.0 162.5 1012 0 2 Image Chart
1993 9 3 00 29.0 163.0 1012 0 2 Image Chart
Japan Meteorological Agency Best Track Data | Correction Date : 2013-11-22
< Typhoon 199309 1993 Season Typhoon 199311 >

Help